createdAt,value
2022-08-17T00:00:42.674Z,19.60
2022-08-17T00:03:09.923Z,19.50
2022-08-17T00:05:42.308Z,19.50
2022-08-17T00:08:10.945Z,19.50
2022-08-17T00:10:39.692Z,19.50
2022-08-17T00:13:09.523Z,19.50
2022-08-17T00:15:39.369Z,19.50
2022-08-17T00:19:01.132Z,19.50
2022-08-17T00:20:58.161Z,19.50
2022-08-17T00:23:26.979Z,19.60
2022-08-17T00:25:56.012Z,19.60
2022-08-17T00:28:24.506Z,19.70
2022-08-17T00:30:55.538Z,19.70
2022-08-17T00:33:27.221Z,19.70
2022-08-17T00:35:56.818Z,19.70
2022-08-17T00:38:26.556Z,19.70
2022-08-17T00:40:59.178Z,19.70
2022-08-17T00:43:33.083Z,19.70
2022-08-17T00:46:06.905Z,19.70
2022-08-17T00:48:35.615Z,19.60
2022-08-17T00:51:09.051Z,19.60
2022-08-17T00:53:42.003Z,19.60
2022-08-17T00:56:13.774Z,19.50
2022-08-17T00:58:42.662Z,19.40
2022-08-17T01:01:21.537Z,19.40
2022-08-17T01:03:51.947Z,19.40
2022-08-17T01:06:21.355Z,19.40
2022-08-17T01:08:57.716Z,19.30
2022-08-17T01:11:26.605Z,19.40
2022-08-17T01:13:57.095Z,19.40
2022-08-17T01:16:28.785Z,19.40
2022-08-17T01:19:03.090Z,19.40
2022-08-17T01:21:42.707Z,19.40
2022-08-17T01:24:12.310Z,19.30
2022-08-17T01:26:41.534Z,19.30
2022-08-17T01:29:10.432Z,19.20
2022-08-17T01:31:44.352Z,19.10
2022-08-17T01:34:14.621Z,19.00
2022-08-17T01:36:45.868Z,19.00
2022-08-17T01:39:22.403Z,18.90
2022-08-17T01:41:53.748Z,18.90
2022-08-17T01:44:22.934Z,18.80
2022-08-17T01:46:51.103Z,18.80
2022-08-17T01:49:20.645Z,18.80
2022-08-17T01:51:49.141Z,18.80
2022-08-17T01:54:20.679Z,18.80
2022-08-17T01:56:51.705Z,18.70
2022-08-17T01:59:20.994Z,18.70
2022-08-17T02:01:49.472Z,18.70
2022-08-17T02:04:17.795Z,18.60
2022-08-17T02:06:54.057Z,18.60
2022-08-17T02:09:25.834Z,18.60
2022-08-17T02:11:54.873Z,18.60
2022-08-17T02:14:25.754Z,18.80
2022-08-17T02:16:54.696Z,18.70
2022-08-17T02:19:23.088Z,18.70
2022-08-17T02:21:54.154Z,18.70
2022-08-17T02:24:59.635Z,18.70
2022-08-17T02:27:13.810Z,18.60
2022-08-17T02:29:42.062Z,18.70
2022-08-17T02:32:20.903Z,18.70
2022-08-17T02:34:56.744Z,18.70
2022-08-17T02:37:25.489Z,18.70
2022-08-17T02:39:56.870Z,18.70
2022-08-17T02:42:30.031Z,18.70
2022-08-17T02:44:58.152Z,18.70
2022-08-17T02:47:26.767Z,18.70
2022-08-17T02:49:56.185Z,18.80
2022-08-17T02:52:53.520Z,18.80
2022-08-17T02:55:18.166Z,18.80
2022-08-17T02:57:46.605Z,18.90
2022-08-17T03:00:22.485Z,19.00
2022-08-17T03:02:50.921Z,19.10
2022-08-17T03:05:22.009Z,19.20
2022-08-17T03:07:50.211Z,19.20
2022-08-17T03:10:21.547Z,19.30
2022-08-17T03:12:50.341Z,19.30
2022-08-17T03:15:22.289Z,19.40
2022-08-17T03:17:50.878Z,19.50
2022-08-17T03:20:19.840Z,19.50
2022-08-17T03:22:53.335Z,19.60
2022-08-17T03:25:27.051Z,19.60
2022-08-17T03:27:55.837Z,19.70
2022-08-17T03:30:25.035Z,19.70
2022-08-17T03:32:55.682Z,19.70
2022-08-17T03:35:26.812Z,19.60
2022-08-17T03:38:00.421Z,19.70
2022-08-17T03:40:39.874Z,19.70
2022-08-17T03:43:21.863Z,19.60
2022-08-17T03:46:19.303Z,19.70
2022-08-17T03:49:13.227Z,19.70
2022-08-17T03:51:58.574Z,19.70
2022-08-17T03:54:44.312Z,19.70
2022-08-17T03:57:13.775Z,19.70
2022-08-17T03:59:42.496Z,19.70
2022-08-17T04:02:15.561Z,19.70
2022-08-17T04:04:43.736Z,19.70
2022-08-17T04:07:11.862Z,19.70
2022-08-17T04:09:40.072Z,19.70
2022-08-17T04:12:08.487Z,19.70
2022-08-17T04:14:51.571Z,19.70
2022-08-17T04:17:23.661Z,19.60
2022-08-17T04:19:51.782Z,19.60
2022-08-17T04:22:32.708Z,19.60
2022-08-17T04:25:08.961Z,19.60
2022-08-17T04:27:37.793Z,19.60
2022-08-17T04:30:08.490Z,19.50
2022-08-17T04:33:00.617Z,19.50
2022-08-17T04:35:36.546Z,19.50
2022-08-17T04:38:05.437Z,19.50
2022-08-17T04:40:51.358Z,19.50
2022-08-17T04:43:21.334Z,19.40
2022-08-17T04:45:56.281Z,19.40
2022-08-17T04:48:32.208Z,19.40
2022-08-17T04:51:09.419Z,19.40
2022-08-17T04:53:37.561Z,19.30
2022-08-17T04:56:06.191Z,19.30
2022-08-17T04:58:34.398Z,19.40
2022-08-17T05:01:04.277Z,19.30
2022-08-17T05:03:32.654Z,19.20
2022-08-17T05:06:00.811Z,19.30
2022-08-17T05:08:29.051Z,19.30
2022-08-17T05:10:57.119Z,19.30
2022-08-17T05:13:27.945Z,19.30
2022-08-17T05:15:58.160Z,19.40
2022-08-17T05:18:28.918Z,19.40
2022-08-17T05:20:57.555Z,19.50
2022-08-17T05:23:27.289Z,19.50
2022-08-17T05:26:06.391Z,19.50
2022-08-17T05:28:38.431Z,19.60
2022-08-17T05:31:08.031Z,19.60
2022-08-17T05:33:44.302Z,19.70
2022-08-17T05:36:41.985Z,19.70
2022-08-17T05:39:02.936Z,19.70
2022-08-17T05:41:30.926Z,19.70
2022-08-17T05:43:58.966Z,19.70
2022-08-17T05:46:31.408Z,19.70
2022-08-17T05:49:05.372Z,19.80
2022-08-17T05:51:59.270Z,19.80
2022-08-17T05:54:39.376Z,19.90
2022-08-17T05:57:34.199Z,19.90
2022-08-17T06:00:10.745Z,20.00
2022-08-17T06:02:54.393Z,20.00
2022-08-17T06:05:36.883Z,20.10
2022-08-17T06:08:14.042Z,20.20
2022-08-17T06:10:48.586Z,20.20
2022-08-17T06:13:29.194Z,20.30
2022-08-17T06:16:03.036Z,20.40
2022-08-17T06:18:42.858Z,20.60
2022-08-17T06:21:15.489Z,20.70
2022-08-17T06:23:49.326Z,20.80
2022-08-17T06:26:21.986Z,20.80
2022-08-17T06:28:59.967Z,20.90
2022-08-17T06:31:32.681Z,21.00
2022-08-17T06:34:04.278Z,21.00
2022-08-17T06:36:44.086Z,21.00
2022-08-17T06:39:26.483Z,21.00
2022-08-17T06:42:06.471Z,21.10
2022-08-17T06:44:50.214Z,21.10
2022-08-17T06:47:28.863Z,21.10
2022-08-17T06:50:05.512Z,21.10
2022-08-17T06:52:45.777Z,21.10
2022-08-17T06:55:21.262Z,21.20
2022-08-17T06:57:53.485Z,21.30
2022-08-17T07:00:24.423Z,21.30
2022-08-17T07:02:58.702Z,21.40
2022-08-17T07:05:31.767Z,21.50
2022-08-17T07:08:08.064Z,21.60
2022-08-17T07:10:41.048Z,21.60
2022-08-17T07:13:25.765Z,21.60
2022-08-17T07:16:00.351Z,21.50
2022-08-17T07:18:33.006Z,21.50
2022-08-17T07:21:17.544Z,21.50
2022-08-17T07:24:01.966Z,21.40
2022-08-17T07:26:30.320Z,21.40
2022-08-17T07:29:00.625Z,21.40
2022-08-17T07:31:33.636Z,21.40
2022-08-17T07:34:07.920Z,21.40
2022-08-17T07:36:36.022Z,21.40
2022-08-17T07:39:05.825Z,21.50
2022-08-17T07:41:53.121Z,21.50
2022-08-17T07:44:27.579Z,21.50
2022-08-17T07:47:13.781Z,21.50
2022-08-17T07:49:46.459Z,21.40
2022-08-17T07:52:51.931Z,21.40
2022-08-17T07:55:35.092Z,21.40
2022-08-17T07:58:03.568Z,21.50
2022-08-17T08:00:33.540Z,21.60
2022-08-17T08:03:20.444Z,21.70
2022-08-17T08:05:56.360Z,21.80
2022-08-17T08:08:30.937Z,21.90
2022-08-17T08:11:03.931Z,22.00
2022-08-17T08:13:33.253Z,22.10
2022-08-17T08:16:24.167Z,22.10
2022-08-17T08:18:57.261Z,22.30
2022-08-17T08:21:34.178Z,22.50
2022-08-17T08:24:20.887Z,22.60
2022-08-17T08:26:57.979Z,22.70
2022-08-17T08:29:38.157Z,22.80
2022-08-17T08:32:15.965Z,22.90
2022-08-17T08:35:01.515Z,23.00
2022-08-17T08:37:43.245Z,23.10
2022-08-17T08:40:29.969Z,23.10
2022-08-17T08:43:06.741Z,23.10
2022-08-17T08:45:43.889Z,23.10
2022-08-17T08:48:53.955Z,23.10
2022-08-17T08:51:24.125Z,23.10
2022-08-17T08:54:03.284Z,23.10
2022-08-17T08:56:38.719Z,23.10
2022-08-17T08:59:18.162Z,23.10
2022-08-17T09:01:56.613Z,23.10
2022-08-17T09:05:02.729Z,23.20
2022-08-17T09:07:38.303Z,23.30
2022-08-17T09:10:13.856Z,23.30
2022-08-17T09:12:52.135Z,23.40
2022-08-17T09:15:25.629Z,23.50
2022-08-17T09:19:01.332Z,23.60
2022-08-17T09:20:53.338Z,23.80
2022-08-17T09:23:35.167Z,23.90
2022-08-17T09:26:11.420Z,24.10
2022-08-17T09:28:46.131Z,24.20
2022-08-17T09:31:20.821Z,24.30
2022-08-17T09:33:51.328Z,24.40
2022-08-17T09:36:26.644Z,24.40
2022-08-17T09:39:00.870Z,24.40
2022-08-17T09:41:39.230Z,24.50
2022-08-17T09:44:39.907Z,24.50
2022-08-17T09:47:17.117Z,24.50
2022-08-17T09:49:50.345Z,24.40
2022-08-17T09:52:21.440Z,24.40
2022-08-17T09:54:51.957Z,24.50
2022-08-17T09:57:31.023Z,24.50
2022-08-17T10:00:16.448Z,24.50
2022-08-17T10:03:16.159Z,24.60
2022-08-17T10:05:51.267Z,24.70
2022-08-17T10:08:33.785Z,24.80
2022-08-17T10:11:14.631Z,25.00
2022-08-17T10:13:53.238Z,25.10
